sensor_id;sensor_type;location;lat;lon;timestamp;temperature;humidity
7331;DHT22;3706;49.198;7.064;2022-11-18T00:01:39;7.50;99.90
7331;DHT22;3706;49.198;7.064;2022-11-18T00:04:06;7.50;99.90
7331;DHT22;3706;49.198;7.064;2022-11-18T00:06:33;7.50;99.90
7331;DHT22;3706;49.198;7.064;2022-11-18T00:09:00;7.60;99.90
7331;DHT22;3706;49.198;7.064;2022-11-18T00:11:28;7.80;99.90
7331;DHT22;3706;49.198;7.064;2022-11-18T00:14:14;7.70;99.90
7331;DHT22;3706;49.198;7.064;2022-11-18T00:16:45;7.80;99.90
7331;DHT22;3706;49.198;7.064;2022-11-18T00:19:12;7.80;99.90
7331;DHT22;3706;49.198;7.064;2022-11-18T00:21:39;7.80;99.90
7331;DHT22;3706;49.198;7.064;2022-11-18T00:24:06;7.80;99.90
7331;DHT22;3706;49.198;7.064;2022-11-18T00:26:33;7.80;99.90
7331;DHT22;3706;49.198;7.064;2022-11-18T00:29:00;7.90;99.90
7331;DHT22;3706;49.198;7.064;2022-11-18T00:31:29;7.80;99.90
7331;DHT22;3706;49.198;7.064;2022-11-18T00:33:56;7.90;99.90
7331;DHT22;3706;49.198;7.064;2022-11-18T00:36:23;7.90;99.90
7331;DHT22;3706;49.198;7.064;2022-11-18T00:38:50;7.90;99.90
7331;DHT22;3706;49.198;7.064;2022-11-18T00:41:17;7.90;99.90
7331;DHT22;3706;49.198;7.064;2022-11-18T00:43:44;8.00;99.90
7331;DHT22;3706;49.198;7.064;2022-11-18T00:46:10;8.00;99.90
7331;DHT22;3706;49.198;7.064;2022-11-18T00:48:39;8.00;99.90
7331;DHT22;3706;49.198;7.064;2022-11-18T00:51:08;7.90;99.90
7331;DHT22;3706;49.198;7.064;2022-11-18T00:53:35;7.90;99.90
7331;DHT22;3706;49.198;7.064;2022-11-18T00:56:02;8.00;99.90
7331;DHT22;3706;49.198;7.064;2022-11-18T00:58:29;8.10;99.90
7331;DHT22;3706;49.198;7.064;2022-11-18T01:00:57;8.10;99.90
7331;DHT22;3706;49.198;7.064;2022-11-18T01:03:24;8.20;99.90
7331;DHT22;3706;49.198;7.064;2022-11-18T01:05:53;8.20;99.90
7331;DHT22;3706;49.198;7.064;2022-11-18T01:08:20;8.20;99.90
7331;DHT22;3706;49.198;7.064;2022-11-18T01:10:47;8.20;99.90
7331;DHT22;3706;49.198;7.064;2022-11-18T01:13:17;8.10;99.90
7331;DHT22;3706;49.198;7.064;2022-11-18T01:15:49;8.00;99.90
7331;DHT22;3706;49.198;7.064;2022-11-18T01:18:18;8.10;99.90
7331;DHT22;3706;49.198;7.064;2022-11-18T01:20:45;8.10;99.90
7331;DHT22;3706;49.198;7.064;2022-11-18T01:23:14;8.20;99.90
7331;DHT22;3706;49.198;7.064;2022-11-18T01:25:43;8.20;99.90
7331;DHT22;3706;49.198;7.064;2022-11-18T01:28:11;8.20;99.90
7331;DHT22;3706;49.198;7.064;2022-11-18T01:30:39;8.20;99.90
7331;DHT22;3706;49.198;7.064;2022-11-18T01:33:07;8.20;99.90
7331;DHT22;3706;49.198;7.064;2022-11-18T01:35:34;8.30;99.90
7331;DHT22;3706;49.198;7.064;2022-11-18T01:38:01;8.30;99.90
7331;DHT22;3706;49.198;7.064;2022-11-18T01:40:30;8.30;99.90
7331;DHT22;3706;49.198;7.064;2022-11-18T01:42:57;8.30;99.90
7331;DHT22;3706;49.198;7.064;2022-11-18T01:45:28;8.40;99.90
7331;DHT22;3706;49.198;7.064;2022-11-18T01:48:01;8.30;99.90
7331;DHT22;3706;49.198;7.064;2022-11-18T01:50:30;8.40;99.90
7331;DHT22;3706;49.198;7.064;2022-11-18T01:53:01;8.40;99.90
7331;DHT22;3706;49.198;7.064;2022-11-18T01:55:33;8.40;99.90
7331;DHT22;3706;49.198;7.064;2022-11-18T01:58:05;8.40;99.90
7331;DHT22;3706;49.198;7.064;2022-11-18T02:00:33;8.40;99.90
7331;DHT22;3706;49.198;7.064;2022-11-18T02:03:01;8.40;99.90
7331;DHT22;3706;49.198;7.064;2022-11-18T02:05:28;8.40;99.90
7331;DHT22;3706;49.198;7.064;2022-11-18T02:07:57;8.30;99.90
7331;DHT22;3706;49.198;7.064;2022-11-18T02:10:25;8.30;99.90
7331;DHT22;3706;49.198;7.064;2022-11-18T02:12:55;8.30;99.90
7331;DHT22;3706;49.198;7.064;2022-11-18T02:15:30;8.20;99.90
7331;DHT22;3706;49.198;7.064;2022-11-18T02:18:07;8.10;99.90
7331;DHT22;3706;49.198;7.064;2022-11-18T02:20:38;8.10;99.90
7331;DHT22;3706;49.198;7.064;2022-11-18T02:26:37;7.90;99.90
7331;DHT22;3706;49.198;7.064;2022-11-18T02:29:11;7.80;99.90
7331;DHT22;3706;49.198;7.064;2022-11-18T02:31:47;7.70;99.90
7331;DHT22;3706;49.198;7.064;2022-11-18T02:34:23;7.70;99.90
7331;DHT22;3706;49.198;7.064;2022-11-18T02:36:54;7.70;99.90
7331;DHT22;3706;49.198;7.064;2022-11-18T02:39:29;7.60;99.90
7331;DHT22;3706;49.198;7.064;2022-11-18T02:41:58;7.60;99.90
7331;DHT22;3706;49.198;7.064;2022-11-18T02:44:30;7.70;99.90
7331;DHT22;3706;49.198;7.064;2022-11-18T02:47:00;7.70;99.90
7331;DHT22;3706;49.198;7.064;2022-11-18T02:49:33;7.70;99.90
7331;DHT22;3706;49.198;7.064;2022-11-18T02:52:01;7.70;99.90
7331;DHT22;3706;49.198;7.064;2022-11-18T02:54:31;7.70;99.90
7331;DHT22;3706;49.198;7.064;2022-11-18T02:57:00;7.60;99.90
7331;DHT22;3706;49.198;7.064;2022-11-18T02:59:29;7.60;99.90
7331;DHT22;3706;49.198;7.064;2022-11-18T03:01:57;7.50;99.90
7331;DHT22;3706;49.198;7.064;2022-11-18T03:04:24;7.40;99.90
7331;DHT22;3706;49.198;7.064;2022-11-18T03:06:55;7.40;99.90
7331;DHT22;3706;49.198;7.064;2022-11-18T03:09:28;7.40;99.90
7331;DHT22;3706;49.198;7.064;2022-11-18T03:12:05;7.40;99.90
7331;DHT22;3706;49.198;7.064;2022-11-18T03:14:45;7.40;99.90
7331;DHT22;3706;49.198;7.064;2022-11-18T03:17:18;7.50;99.90
7331;DHT22;3706;49.198;7.064;2022-11-18T03:19:57;7.60;99.90
7331;DHT22;3706;49.198;7.064;2022-11-18T03:22:31;7.70;99.90
7331;DHT22;3706;49.198;7.064;2022-11-18T03:25:04;7.70;99.90
7331;DHT22;3706;49.198;7.064;2022-11-18T03:27:35;7.70;99.90
7331;DHT22;3706;49.198;7.064;2022-11-18T03:30:07;7.80;99.90
7331;DHT22;3706;49.198;7.064;2022-11-18T03:32:38;7.80;99.90
7331;DHT22;3706;49.198;7.064;2022-11-18T03:35:10;7.80;99.90
7331;DHT22;3706;49.198;7.064;2022-11-18T03:37:39;7.60;99.90
7331;DHT22;3706;49.198;7.064;2022-11-18T03:40:12;7.60;99.90
7331;DHT22;3706;49.198;7.064;2022-11-18T03:42:42;7.60;99.90
7331;DHT22;3706;49.198;7.064;2022-11-18T03:45:15;7.60;99.90
7331;DHT22;3706;49.198;7.064;2022-11-18T03:47:47;7.60;99.90
7331;DHT22;3706;49.198;7.064;2022-11-18T03:50:20;7.60;99.90
7331;DHT22;3706;49.198;7.064;2022-11-18T03:52:48;7.70;99.90
7331;DHT22;3706;49.198;7.064;2022-11-18T03:55:19;7.70;99.90
7331;DHT22;3706;49.198;7.064;2022-11-18T03:57:53;7.70;99.90
7331;DHT22;3706;49.198;7.064;2022-11-18T04:00:23;7.60;99.90
7331;DHT22;3706;49.198;7.064;2022-11-18T04:02:52;7.50;99.90
7331;DHT22;3706;49.198;7.064;2022-11-18T04:05:19;7.50;99.90
7331;DHT22;3706;49.198;7.064;2022-11-18T04:07:53;7.50;99.90
7331;DHT22;3706;49.198;7.064;2022-11-18T04:10:23;7.40;99.90
7331;DHT22;3706;49.198;7.064;2022-11-18T04:12:58;7.40;99.90
7331;DHT22;3706;49.198;7.064;2022-11-18T04:15:29;7.30;99.90
7331;DHT22;3706;49.198;7.064;2022-11-18T04:17:56;7.30;99.90
7331;DHT22;3706;49.198;7.064;2022-11-18T04:20:24;7.40;99.90
7331;DHT22;3706;49.198;7.064;2022-11-18T04:22:51;7.40;99.90
7331;DHT22;3706;49.198;7.064;2022-11-18T04:25:18;7.40;99.90
7331;DHT22;3706;49.198;7.064;2022-11-18T04:27:45;7.40;99.90
7331;DHT22;3706;49.198;7.064;2022-11-18T04:30:13;7.50;99.90
7331;DHT22;3706;49.198;7.064;2022-11-18T04:32:42;7.60;99.90
7331;DHT22;3706;49.198;7.064;2022-11-18T04:35:10;7.60;99.90
7331;DHT22;3706;49.198;7.064;2022-11-18T04:37:37;7.60;99.90
7331;DHT22;3706;49.198;7.064;2022-11-18T04:40:05;7.70;99.90
7331;DHT22;3706;49.198;7.064;2022-11-18T04:42:32;7.70;99.90
7331;DHT22;3706;49.198;7.064;2022-11-18T04:44:59;7.70;99.90
7331;DHT22;3706;49.198;7.064;2022-11-18T04:47:26;7.70;99.90
7331;DHT22;3706;49.198;7.064;2022-11-18T04:49:54;7.70;99.90
7331;DHT22;3706;49.198;7.064;2022-11-18T04:52:21;7.70;99.90
7331;DHT22;3706;49.198;7.064;2022-11-18T04:54:48;7.80;99.90
7331;DHT22;3706;49.198;7.064;2022-11-18T04:57:15;7.60;99.90
7331;DHT22;3706;49.198;7.064;2022-11-18T04:59:42;7.60;99.90
7331;DHT22;3706;49.198;7.064;2022-11-18T05:02:09;7.60;99.90
7331;DHT22;3706;49.198;7.064;2022-11-18T05:04:35;7.60;99.90
7331;DHT22;3706;49.198;7.064;2022-11-18T05:07:05;7.60;99.90
7331;DHT22;3706;49.198;7.064;2022-11-18T05:09:33;7.70;99.90
7331;DHT22;3706;49.198;7.064;2022-11-18T05:12:00;7.70;99.90
7331;DHT22;3706;49.198;7.064;2022-11-18T05:14:44;7.70;99.90
7331;DHT22;3706;49.198;7.064;2022-11-18T05:17:11;7.70;99.90
7331;DHT22;3706;49.198;7.064;2022-11-18T05:19:38;7.70;99.90
7331;DHT22;3706;49.198;7.064;2022-11-18T05:22:07;7.80;99.90
7331;DHT22;3706;49.198;7.064;2022-11-18T05:24:34;7.80;99.90
7331;DHT22;3706;49.198;7.064;2022-11-18T05:27:00;7.90;99.90
7331;DHT22;3706;49.198;7.064;2022-11-18T05:29:27;7.80;99.90
7331;DHT22;3706;49.198;7.064;2022-11-18T05:31:54;7.80;99.90
7331;DHT22;3706;49.198;7.064;2022-11-18T05:34:21;7.80;99.90
7331;DHT22;3706;49.198;7.064;2022-11-18T05:36:48;7.70;99.90
7331;DHT22;3706;49.198;7.064;2022-11-18T05:39:17;7.80;99.90
7331;DHT22;3706;49.198;7.064;2022-11-18T05:41:44;7.80;99.90
7331;DHT22;3706;49.198;7.064;2022-11-18T05:44:29;7.80;99.90
7331;DHT22;3706;49.198;7.064;2022-11-18T05:46:55;7.90;99.90
7331;DHT22;3706;49.198;7.064;2022-11-18T05:49:22;7.80;99.90
7331;DHT22;3706;49.198;7.064;2022-11-18T05:51:50;7.80;99.90
7331;DHT22;3706;49.198;7.064;2022-11-18T05:54:18;7.80;99.90
7331;DHT22;3706;49.198;7.064;2022-11-18T05:56:46;7.80;99.90
7331;DHT22;3706;49.198;7.064;2022-11-18T05:59:13;7.70;99.90
7331;DHT22;3706;49.198;7.064;2022-11-18T06:01:43;7.70;99.90
7331;DHT22;3706;49.198;7.064;2022-11-18T06:04:14;7.80;99.90
7331;DHT22;3706;49.198;7.064;2022-11-18T06:06:42;7.80;99.90
7331;DHT22;3706;49.198;7.064;2022-11-18T06:09:10;7.80;99.90
7331;DHT22;3706;49.198;7.064;2022-11-18T06:11:42;7.80;99.90
7331;DHT22;3706;49.198;7.064;2022-11-18T06:14:14;7.80;99.90
7331;DHT22;3706;49.198;7.064;2022-11-18T06:16:46;7.80;99.90
7331;DHT22;3706;49.198;7.064;2022-11-18T06:19:14;7.80;99.90
7331;DHT22;3706;49.198;7.064;2022-11-18T06:21:42;7.90;99.90
7331;DHT22;3706;49.198;7.064;2022-11-18T06:24:09;7.90;99.90
7331;DHT22;3706;49.198;7.064;2022-11-18T06:26:36;7.90;99.90
7331;DHT22;3706;49.198;7.064;2022-11-18T06:29:06;7.90;99.90
7331;DHT22;3706;49.198;7.064;2022-11-18T06:31:34;7.90;99.90
7331;DHT22;3706;49.198;7.064;2022-11-18T06:34:01;8.00;99.90
7331;DHT22;3706;49.198;7.064;2022-11-18T06:36:27;8.00;99.90
7331;DHT22;3706;49.198;7.064;2022-11-18T06:38:54;8.00;99.90
7331;DHT22;3706;49.198;7.064;2022-11-18T06:41:21;8.10;99.90
7331;DHT22;3706;49.198;7.064;2022-11-18T06:43:48;8.00;99.90
7331;DHT22;3706;49.198;7.064;2022-11-18T06:46:16;8.10;99.90
7331;DHT22;3706;49.198;7.064;2022-11-18T06:49:01;8.00;99.90
7331;DHT22;3706;49.198;7.064;2022-11-18T06:51:28;8.00;99.90
7331;DHT22;3706;49.198;7.064;2022-11-18T06:53:55;8.10;99.90
7331;DHT22;3706;49.198;7.064;2022-11-18T06:56:22;8.10;99.90
7331;DHT22;3706;49.198;7.064;2022-11-18T06:58:52;8.00;99.90
7331;DHT22;3706;49.198;7.064;2022-11-18T07:01:23;8.00;99.90
7331;DHT22;3706;49.198;7.064;2022-11-18T07:03:50;8.00;99.90
7331;DHT22;3706;49.198;7.064;2022-11-18T07:06:19;8.00;99.90
7331;DHT22;3706;49.198;7.064;2022-11-18T07:08:46;8.10;99.90
7331;DHT22;3706;49.198;7.064;2022-11-18T07:11:15;8.10;99.90
7331;DHT22;3706;49.198;7.064;2022-11-18T07:13:44;8.10;99.90
7331;DHT22;3706;49.198;7.064;2022-11-18T07:16:12;8.10;99.90
7331;DHT22;3706;49.198;7.064;2022-11-18T07:18:42;8.20;99.90
7331;DHT22;3706;49.198;7.064;2022-11-18T07:21:10;8.10;99.90
7331;DHT22;3706;49.198;7.064;2022-11-18T07:23:38;8.10;99.90
7331;DHT22;3706;49.198;7.064;2022-11-18T07:26:06;8.20;99.90
7331;DHT22;3706;49.198;7.064;2022-11-18T07:28:33;8.30;99.90
7331;DHT22;3706;49.198;7.064;2022-11-18T07:31:01;8.30;99.90
7331;DHT22;3706;49.198;7.064;2022-11-18T07:33:28;8.40;99.90
7331;DHT22;3706;49.198;7.064;2022-11-18T07:35:59;8.40;99.90
7331;DHT22;3706;49.198;7.064;2022-11-18T07:38:26;8.50;99.90
7331;DHT22;3706;49.198;7.064;2022-11-18T07:40:54;8.50;99.90
7331;DHT22;3706;49.198;7.064;2022-11-18T07:43:21;8.50;99.90
7331;DHT22;3706;49.198;7.064;2022-11-18T07:45:48;8.60;99.90
7331;DHT22;3706;49.198;7.064;2022-11-18T07:48:14;8.60;99.90
7331;DHT22;3706;49.198;7.064;2022-11-18T07:50:41;8.60;99.90
7331;DHT22;3706;49.198;7.064;2022-11-18T07:53:10;8.60;99.90
7331;DHT22;3706;49.198;7.064;2022-11-18T07:55:37;8.60;99.90
7331;DHT22;3706;49.198;7.064;2022-11-18T07:58:03;8.60;99.90
7331;DHT22;3706;49.198;7.064;2022-11-18T08:00:30;8.60;99.90
7331;DHT22;3706;49.198;7.064;2022-11-18T08:02:57;8.60;99.90
7331;DHT22;3706;49.198;7.064;2022-11-18T08:05:24;8.60;99.90
7331;DHT22;3706;49.198;7.064;2022-11-18T08:07:51;8.50;99.90
7331;DHT22;3706;49.198;7.064;2022-11-18T08:10:20;8.50;99.90
7331;DHT22;3706;49.198;7.064;2022-11-18T08:12:46;8.50;99.90
7331;DHT22;3706;49.198;7.064;2022-11-18T08:15:13;8.60;99.90
7331;DHT22;3706;49.198;7.064;2022-11-18T08:17:40;8.60;99.90
7331;DHT22;3706;49.198;7.064;2022-11-18T08:20:08;8.60;99.90
7331;DHT22;3706;49.198;7.064;2022-11-18T08:22:35;8.60;99.90
7331;DHT22;3706;49.198;7.064;2022-11-18T08:25:02;8.60;99.90
7331;DHT22;3706;49.198;7.064;2022-11-18T08:27:30;8.70;99.90
7331;DHT22;3706;49.198;7.064;2022-11-18T08:29:58;8.80;99.90
7331;DHT22;3706;49.198;7.064;2022-11-18T08:32:24;8.90;99.90
7331;DHT22;3706;49.198;7.064;2022-11-18T08:34:51;9.00;99.90
7331;DHT22;3706;49.198;7.064;2022-11-18T08:37:18;9.10;99.90
7331;DHT22;3706;49.198;7.064;2022-11-18T08:39:45;9.20;99.90
7331;DHT22;3706;49.198;7.064;2022-11-18T08:42:12;9.30;99.90
7331;DHT22;3706;49.198;7.064;2022-11-18T08:44:40;9.30;99.90
7331;DHT22;3706;49.198;7.064;2022-11-18T08:47:07;9.40;99.90
7331;DHT22;3706;49.198;7.064;2022-11-18T08:49:34;9.50;99.90
7331;DHT22;3706;49.198;7.064;2022-11-18T08:52:01;9.50;99.90
7331;DHT22;3706;49.198;7.064;2022-11-18T08:54:28;9.50;99.90
7331;DHT22;3706;49.198;7.064;2022-11-18T08:56:56;9.50;99.90
7331;DHT22;3706;49.198;7.064;2022-11-18T08:59:23;9.50;99.90
7331;DHT22;3706;49.198;7.064;2022-11-18T09:01:51;9.50;99.90
7331;DHT22;3706;49.198;7.064;2022-11-18T09:04:18;9.50;99.90
7331;DHT22;3706;49.198;7.064;2022-11-18T09:06:45;9.50;99.90
7331;DHT22;3706;49.198;7.064;2022-11-18T09:09:12;9.50;99.90
7331;DHT22;3706;49.198;7.064;2022-11-18T09:11:39;9.50;99.90
7331;DHT22;3706;49.198;7.064;2022-11-18T09:14:05;9.40;99.90
7331;DHT22;3706;49.198;7.064;2022-11-18T09:16:33;9.30;99.90
7331;DHT22;3706;49.198;7.064;2022-11-18T09:19:02;9.30;99.90
7331;DHT22;3706;49.198;7.064;2022-11-18T09:21:29;9.30;99.90
7331;DHT22;3706;49.198;7.064;2022-11-18T09:23:56;9.30;99.90
7331;DHT22;3706;49.198;7.064;2022-11-18T09:26:23;9.30;99.90
7331;DHT22;3706;49.198;7.064;2022-11-18T09:28:52;9.40;99.90
7331;DHT22;3706;49.198;7.064;2022-11-18T09:31:20;9.40;99.90
7331;DHT22;3706;49.198;7.064;2022-11-18T09:33:47;9.50;99.90
7331;DHT22;3706;49.198;7.064;2022-11-18T09:36:16;9.50;99.90
7331;DHT22;3706;49.198;7.064;2022-11-18T09:38:43;9.50;99.90
7331;DHT22;3706;49.198;7.064;2022-11-18T09:41:24;9.60;99.90
7331;DHT22;3706;49.198;7.064;2022-11-18T09:44:02;9.70;99.90
7331;DHT22;3706;49.198;7.064;2022-11-18T09:46:39;9.70;99.90
7331;DHT22;3706;49.198;7.064;2022-11-18T09:49:13;9.80;99.90
7331;DHT22;3706;49.198;7.064;2022-11-18T09:51:43;9.80;99.90
7331;DHT22;3706;49.198;7.064;2022-11-18T09:54:15;10.00;99.90
7331;DHT22;3706;49.198;7.064;2022-11-18T09:56:45;10.10;99.90
7331;DHT22;3706;49.198;7.064;2022-11-18T09:59:14;10.30;99.90
7331;DHT22;3706;49.198;7.064;2022-11-18T10:01:44;10.50;99.90
7331;DHT22;3706;49.198;7.064;2022-11-18T10:04:13;10.70;99.90
7331;DHT22;3706;49.198;7.064;2022-11-18T10:06:43;10.90;99.90
7331;DHT22;3706;49.198;7.064;2022-11-18T10:09:23;11.10;99.90
7331;DHT22;3706;49.198;7.064;2022-11-18T10:12:08;11.30;99.90
7331;DHT22;3706;49.198;7.064;2022-11-18T10:15:01;11.50;99.90
7331;DHT22;3706;49.198;7.064;2022-11-18T10:17:43;11.60;99.90
7331;DHT22;3706;49.198;7.064;2022-11-18T10:20:32;11.80;99.90
7331;DHT22;3706;49.198;7.064;2022-11-18T10:23:11;11.90;99.90
7331;DHT22;3706;49.198;7.064;2022-11-18T10:25:40;12.00;99.90
7331;DHT22;3706;49.198;7.064;2022-11-18T10:28:16;12.10;99.90
7331;DHT22;3706;49.198;7.064;2022-11-18T10:30:43;12.10;99.90
7331;DHT22;3706;49.198;7.064;2022-11-18T10:33:23;12.20;99.90
7331;DHT22;3706;49.198;7.064;2022-11-18T10:36:08;12.20;99.90
7331;DHT22;3706;49.198;7.064;2022-11-18T10:38:37;12.20;99.90
7331;DHT22;3706;49.198;7.064;2022-11-18T10:41:07;12.40;99.90
7331;DHT22;3706;49.198;7.064;2022-11-18T10:43:47;12.90;99.90
7331;DHT22;3706;49.198;7.064;2022-11-18T10:46:22;13.10;99.90
7331;DHT22;3706;49.198;7.064;2022-11-18T10:49:12;13.10;99.90
7331;DHT22;3706;49.198;7.064;2022-11-18T10:51:42;13.10;99.90
7331;DHT22;3706;49.198;7.064;2022-11-18T10:54:15;13.30;99.90
7331;DHT22;3706;49.198;7.064;2022-11-18T10:56:53;13.30;99.90
7331;DHT22;3706;49.198;7.064;2022-11-18T10:59:29;13.30;99.90
7331;DHT22;3706;49.198;7.064;2022-11-18T11:01:59;13.30;99.90
7331;DHT22;3706;49.198;7.064;2022-11-18T11:04:27;13.10;99.90
7331;DHT22;3706;49.198;7.064;2022-11-18T11:06:55;13.20;99.90
7331;DHT22;3706;49.198;7.064;2022-11-18T11:09:26;13.10;99.90
7331;DHT22;3706;49.198;7.064;2022-11-18T11:11:59;13.10;99.90
7331;DHT22;3706;49.198;7.064;2022-11-18T11:14:31;13.00;99.90
7331;DHT22;3706;49.198;7.064;2022-11-18T11:17:07;13.10;99.90
7331;DHT22;3706;49.198;7.064;2022-11-18T11:19:46;13.50;99.90
7331;DHT22;3706;49.198;7.064;2022-11-18T11:22:15;13.70;99.90
7331;DHT22;3706;49.198;7.064;2022-11-18T11:24:44;13.90;99.90
7331;DHT22;3706;49.198;7.064;2022-11-18T11:27:45;14.00;99.90
7331;DHT22;3706;49.198;7.064;2022-11-18T11:30:19;14.00;99.90
7331;DHT22;3706;49.198;7.064;2022-11-18T11:33:04;13.90;99.90
7331;DHT22;3706;49.198;7.064;2022-11-18T11:35:45;13.60;99.90
7331;DHT22;3706;49.198;7.064;2022-11-18T11:38:17;13.40;99.90
7331;DHT22;3706;49.198;7.064;2022-11-18T11:40:57;13.20;99.90
7331;DHT22;3706;49.198;7.064;2022-11-18T11:43:34;13.10;99.90
7331;DHT22;3706;49.198;7.064;2022-11-18T11:46:30;13.10;99.90
7331;DHT22;3706;49.198;7.064;2022-11-18T11:49:14;13.00;99.90
7331;DHT22;3706;49.198;7.064;2022-11-18T11:51:49;13.10;99.90
7331;DHT22;3706;49.198;7.064;2022-11-18T11:54:37;13.10;99.90
7331;DHT22;3706;49.198;7.064;2022-11-18T11:57:17;13.00;99.90
7331;DHT22;3706;49.198;7.064;2022-11-18T11:59:51;12.90;99.90
7331;DHT22;3706;49.198;7.064;2022-11-18T12:02:49;12.90;99.90
7331;DHT22;3706;49.198;7.064;2022-11-18T12:05:22;12.80;99.90
7331;DHT22;3706;49.198;7.064;2022-11-18T12:07:54;12.80;99.90
7331;DHT22;3706;49.198;7.064;2022-11-18T12:10:27;12.80;99.90
7331;DHT22;3706;49.198;7.064;2022-11-18T12:13:08;12.80;99.90
7331;DHT22;3706;49.198;7.064;2022-11-18T12:15:47;12.90;99.90
7331;DHT22;3706;49.198;7.064;2022-11-18T12:18:21;12.90;99.90
7331;DHT22;3706;49.198;7.064;2022-11-18T12:20:52;12.90;99.90
7331;DHT22;3706;49.198;7.064;2022-11-18T12:23:21;12.90;99.90
7331;DHT22;3706;49.198;7.064;2022-11-18T12:25:57;12.90;99.90
7331;DHT22;3706;49.198;7.064;2022-11-18T12:28:28;12.60;99.90
7331;DHT22;3706;49.198;7.064;2022-11-18T12:31:26;12.40;99.90
7331;DHT22;3706;49.198;7.064;2022-11-18T12:33:58;12.10;99.90
7331;DHT22;3706;49.198;7.064;2022-11-18T12:36:26;12.00;99.90
7331;DHT22;3706;49.198;7.064;2022-11-18T12:38:54;11.90;99.90
7331;DHT22;3706;49.198;7.064;2022-11-18T12:41:53;11.80;99.90
7331;DHT22;3706;49.198;7.064;2022-11-18T12:44:39;11.70;99.90
7331;DHT22;3706;49.198;7.064;2022-11-18T12:47:07;11.70;99.90
7331;DHT22;3706;49.198;7.064;2022-11-18T12:52:51;11.50;99.90
7331;DHT22;3706;49.198;7.064;2022-11-18T12:55:25;11.40;99.90
7331;DHT22;3706;49.198;7.064;2022-11-18T12:57:56;11.30;99.90
7331;DHT22;3706;49.198;7.064;2022-11-18T13:00:30;11.20;99.90
7331;DHT22;3706;49.198;7.064;2022-11-18T13:02:59;11.10;99.90
7331;DHT22;3706;49.198;7.064;2022-11-18T13:05:28;11.10;99.90
7331;DHT22;3706;49.198;7.064;2022-11-18T13:07:58;11.20;99.90
7331;DHT22;3706;49.198;7.064;2022-11-18T13:10:45;11.30;99.90
7331;DHT22;3706;49.198;7.064;2022-11-18T13:13:20;11.30;99.90
7331;DHT22;3706;49.198;7.064;2022-11-18T13:15:49;11.40;99.90
7331;DHT22;3706;49.198;7.064;2022-11-18T13:18:33;11.40;99.90
7331;DHT22;3706;49.198;7.064;2022-11-18T13:21:20;11.50;99.90
7331;DHT22;3706;49.198;7.064;2022-11-18T13:24:04;11.50;99.90
7331;DHT22;3706;49.198;7.064;2022-11-18T13:26:32;11.60;99.90
7331;DHT22;3706;49.198;7.064;2022-11-18T13:32:03;11.70;99.90
7331;DHT22;3706;49.198;7.064;2022-11-18T13:34:40;11.70;99.90
7331;DHT22;3706;49.198;7.064;2022-11-18T13:37:15;11.60;99.90
7331;DHT22;3706;49.198;7.064;2022-11-18T13:39:43;11.60;99.90
7331;DHT22;3706;49.198;7.064;2022-11-18T13:42:15;11.50;99.90
7331;DHT22;3706;49.198;7.064;2022-11-18T13:44:44;11.50;99.90
7331;DHT22;3706;49.198;7.064;2022-11-18T13:50:10;11.10;99.90
7331;DHT22;3706;49.198;7.064;2022-11-18T13:52:43;10.90;99.90
7331;DHT22;3706;49.198;7.064;2022-11-18T13:55:15;10.70;99.90
7331;DHT22;3706;49.198;7.064;2022-11-18T13:57:46;10.60;99.90
7331;DHT22;3706;49.198;7.064;2022-11-18T14:00:20;10.40;99.90
7331;DHT22;3706;49.198;7.064;2022-11-18T14:02:55;10.30;99.90
7331;DHT22;3706;49.198;7.064;2022-11-18T14:05:24;10.10;99.90
7331;DHT22;3706;49.198;7.064;2022-11-18T14:08:01;10.00;99.90
7331;DHT22;3706;49.198;7.064;2022-11-18T14:10:30;9.90;99.90
7331;DHT22;3706;49.198;7.064;2022-11-18T14:12:58;9.90;99.90
7331;DHT22;3706;49.198;7.064;2022-11-18T14:15:33;9.90;99.90
7331;DHT22;3706;49.198;7.064;2022-11-18T14:18:02;9.80;99.90
7331;DHT22;3706;49.198;7.064;2022-11-18T14:20:30;9.70;99.90
7331;DHT22;3706;49.198;7.064;2022-11-18T14:22:59;9.50;99.90
7331;DHT22;3706;49.198;7.064;2022-11-18T14:25:29;9.30;99.90
7331;DHT22;3706;49.198;7.064;2022-11-18T14:28:09;9.40;99.90
7331;DHT22;3706;49.198;7.064;2022-11-18T14:30:37;9.40;99.90
7331;DHT22;3706;49.198;7.064;2022-11-18T14:33:12;9.40;99.90
7331;DHT22;3706;49.198;7.064;2022-11-18T14:35:41;9.50;99.90
7331;DHT22;3706;49.198;7.064;2022-11-18T14:38:19;9.60;99.90
7331;DHT22;3706;49.198;7.064;2022-11-18T14:40:53;9.60;99.90
7331;DHT22;3706;49.198;7.064;2022-11-18T14:43:20;9.70;99.90
7331;DHT22;3706;49.198;7.064;2022-11-18T14:45:47;9.70;99.90
7331;DHT22;3706;49.198;7.064;2022-11-18T14:48:19;9.70;99.90
7331;DHT22;3706;49.198;7.064;2022-11-18T14:50:47;9.80;99.90
7331;DHT22;3706;49.198;7.064;2022-11-18T14:53:14;9.80;99.90
7331;DHT22;3706;49.198;7.064;2022-11-18T14:55:41;9.70;99.90
7331;DHT22;3706;49.198;7.064;2022-11-18T14:58:11;9.70;99.90
7331;DHT22;3706;49.198;7.064;2022-11-18T15:00:39;9.60;99.90
7331;DHT22;3706;49.198;7.064;2022-11-18T15:03:07;9.60;99.90
7331;DHT22;3706;49.198;7.064;2022-11-18T15:05:35;9.50;99.90
7331;DHT22;3706;49.198;7.064;2022-11-18T15:08:02;9.50;99.90
7331;DHT22;3706;49.198;7.064;2022-11-18T15:10:29;9.40;99.90
7331;DHT22;3706;49.198;7.064;2022-11-18T15:12:56;9.40;99.90
7331;DHT22;3706;49.198;7.064;2022-11-18T15:15:23;9.40;99.90
7331;DHT22;3706;49.198;7.064;2022-11-18T15:17:50;9.40;99.90
7331;DHT22;3706;49.198;7.064;2022-11-18T15:20:19;9.30;99.90
7331;DHT22;3706;49.198;7.064;2022-11-18T15:22:48;9.20;99.90
7331;DHT22;3706;49.198;7.064;2022-11-18T15:25:15;9.20;99.90
7331;DHT22;3706;49.198;7.064;2022-11-18T15:27:42;9.00;99.90
7331;DHT22;3706;49.198;7.064;2022-11-18T15:30:11;9.00;99.90
7331;DHT22;3706;49.198;7.064;2022-11-18T15:32:40;9.00;99.90
7331;DHT22;3706;49.198;7.064;2022-11-18T15:35:09;8.90;99.90
7331;DHT22;3706;49.198;7.064;2022-11-18T15:37:36;8.80;99.90
7331;DHT22;3706;49.198;7.064;2022-11-18T15:40:05;8.70;99.90
7331;DHT22;3706;49.198;7.064;2022-11-18T15:42:32;8.70;99.90
7331;DHT22;3706;49.198;7.064;2022-11-18T15:44:59;8.60;99.90
7331;DHT22;3706;49.198;7.064;2022-11-18T15:47:26;8.70;99.90
7331;DHT22;3706;49.198;7.064;2022-11-18T15:49:53;8.70;99.90
7331;DHT22;3706;49.198;7.064;2022-11-18T15:52:20;8.70;99.90
7331;DHT22;3706;49.198;7.064;2022-11-18T15:54:47;8.80;99.90
7331;DHT22;3706;49.198;7.064;2022-11-18T15:57:15;8.80;99.90
7331;DHT22;3706;49.198;7.064;2022-11-18T15:59:42;8.80;99.90
7331;DHT22;3706;49.198;7.064;2022-11-18T16:02:09;8.80;99.90
7331;DHT22;3706;49.198;7.064;2022-11-18T16:04:36;8.70;99.90
7331;DHT22;3706;49.198;7.064;2022-11-18T16:07:03;8.70;99.90
7331;DHT22;3706;49.198;7.064;2022-11-18T16:09:30;8.60;99.90
7331;DHT22;3706;49.198;7.064;2022-11-18T16:12:11;8.50;99.90
7331;DHT22;3706;49.198;7.064;2022-11-18T16:14:56;8.50;99.90
7331;DHT22;3706;49.198;7.064;2022-11-18T16:17:37;8.40;99.90
7331;DHT22;3706;49.198;7.064;2022-11-18T16:20:05;8.40;99.90
7331;DHT22;3706;49.198;7.064;2022-11-18T16:22:32;8.40;99.90
7331;DHT22;3706;49.198;7.064;2022-11-18T16:24:59;8.40;99.90
7331;DHT22;3706;49.198;7.064;2022-11-18T16:27:26;8.40;99.90
7331;DHT22;3706;49.198;7.064;2022-11-18T16:29:53;8.40;99.90
7331;DHT22;3706;49.198;7.064;2022-11-18T16:32:21;8.30;99.90
7331;DHT22;3706;49.198;7.064;2022-11-18T16:34:48;8.30;99.90
7331;DHT22;3706;49.198;7.064;2022-11-18T16:37:15;8.40;99.90
7331;DHT22;3706;49.198;7.064;2022-11-18T16:39:42;8.30;99.90
7331;DHT22;3706;49.198;7.064;2022-11-18T16:42:10;8.30;99.90
7331;DHT22;3706;49.198;7.064;2022-11-18T16:44:37;8.30;99.90
7331;DHT22;3706;49.198;7.064;2022-11-18T16:47:05;8.20;99.90
7331;DHT22;3706;49.198;7.064;2022-11-18T16:49:34;8.20;99.90